Pagina principală
METAR-TAF:

METAR-TAF

Aeroporturi :

Yellowstone Lake, Wyoming, Statele Unite ale Americii

Latitudine: 44-32-40N, longitudine: 110-25-16W, elevație: 2388 m

Observații meteo curente

Raportul a fost făcut în urmă cu 33 de minute, la 05:56 UTC
Vânt calm
Temperatură -8°C
Umiditate 85%
Presiune 1022 hPa

METAR: KP60 240556Z AUTO 00000KT M08/M10 A3019 RMK AO1 SLP275 T10781100 11033 21100 58004

Ora: 23:29 (06:29 UTC)


TAF: lipsă

Observații și prognoze meteo pentru peste 4.000 de aeroporturi (rapoarte METAR și TAF).

Stațiile disponibile sunt reprezentate pe hartă prin puncte galbene și roșii.

Țineți indicatorul mouse-ului pe punctul dorit pentru a vedea denumirea stației.

Apoi, faceți clic pentru a vedea observațiile și prognozele meteorologice.

Pentru a schimba harta: Pentru mărire, faceți clic pe butoanele verzi cu cruce neagră; pentru micșorare, pe butonul verde cu o liniuță; pentru hărți învecinate, pe săgețile verzi.


METAR-TAF: